Time;durP1;ratioP1;P1;durP2;ratioP2;P2;SDS_P1;SDS_P2;PMS_P1;PMS_P2;Temp;Humidity;BMP_temperature;BMP_pressure;BME280_temperature;BME280_humidity;BME280_pressure;Samples;Min_cycle;Max_cycle;Signal;HPM_P1;HPM_P2
2021/12/03 00:02:03;;;;;;;9.95;6.35;;;7.90;63.10;;;;;;5019781;28;20034;-89
2021/12/03 00:04:29;;;;;;;10.82;7.10;;;7.90;63.10;;;;;;5029636;28;20554;-90
2021/12/03 00:06:56;;;;;;;9.20;6.22;;;7.90;63.00;;;;;;5019332;28;20120;-89
2021/12/03 00:09:22;;;;;;;7.43;5.60;;;7.90;63.10;;;;;;5001256;28;20029;-88
2021/12/03 00:11:48;;;;;;;9.82;6.03;;;8.00;63.20;;;;;;5018539;28;20466;-89
2021/12/03 00:14:14;;;;;;;8.73;6.13;;;8.00;63.20;;;;;;5018897;28;20128;-87
2021/12/03 00:16:40;;;;;;;10.00;6.78;;;8.00;63.10;;;;;;5018610;28;20056;-87
2021/12/03 00:19:06;;;;;;;8.80;5.97;;;8.00;63.20;;;;;;4998633;28;20064;-87
2021/12/03 00:21:33;;;;;;;8.80;6.32;;;8.00;63.20;;;;;;5003380;28;20061;-90
2021/12/03 00:23:59;;;;;;;9.55;6.50;;;8.00;63.20;;;;;;5031183;28;20036;-87
2021/12/03 00:26:25;;;;;;;8.02;6.10;;;8.00;63.20;;;;;;5028418;28;20033;-90
2021/12/03 00:28:50;;;;;;;8.30;5.80;;;8.00;63.20;;;;;;5020164;28;20045;-86
2021/12/03 00:31:17;;;;;;;8.13;5.80;;;8.00;63.20;;;;;;5030692;28;20041;-87
2021/12/03 00:33:43;;;;;;;10.68;5.78;;;8.00;63.20;;;;;;5020138;28;20034;-87
2021/12/03 00:36:10;;;;;;;8.55;5.78;;;8.00;63.30;;;;;;5020222;28;20034;-87
2021/12/03 00:38:43;;;;;;;8.20;5.93;;;8.00;63.30;;;;;;5035649;28;20037;-88
2021/12/03 00:41:15;;;;;;;10.20;5.63;;;8.00;63.30;;;;;;5019135;28;20037;-85
2021/12/03 00:43:46;;;;;;;9.07;5.25;;;8.00;63.30;;;;;;5028233;28;20408;-86
2021/12/03 00:46:16;;;;;;;8.13;5.72;;;8.00;63.30;;;;;;4990151;28;20044;-85
2021/12/03 00:48:42;;;;;;;7.60;5.40;;;8.00;63.30;;;;;;5018660;28;21172;-85
2021/12/03 00:51:10;;;;;;;8.80;6.00;;;8.00;63.30;;;;;;5018330;28;20117;-85
2021/12/03 00:53:38;;;;;;;9.00;6.07;;;8.00;63.30;;;;;;5018765;28;20116;-85
2021/12/03 00:56:05;;;;;;;8.05;5.60;;;8.10;63.40;;;;;;5017861;28;20041;-84
2021/12/03 00:58:31;;;;;;;6.40;4.88;;;8.10;63.40;;;;;;5028916;28;20083;-83
2021/12/03 01:00:57;;;;;;;7.20;5.10;;;8.10;63.30;;;;;;5017876;28;20116;-89
2021/12/03 01:03:24;;;;;;;7.45;5.68;;;8.10;63.30;;;;;;5028891;28;20520;-86
2021/12/03 01:05:50;;;;;;;6.97;5.20;;;8.10;63.30;;;;;;4997292;28;20510;-86
2021/12/03 01:08:16;;;;;;;7.65;5.82;;;8.10;63.30;;;;;;5017486;28;20048;-85
2021/12/03 01:10:42;;;;;;;7.20;5.50;;;8.10;63.40;;;;;;5016132;28;20412;-84
2021/12/03 01:13:08;;;;;;;7.00;5.07;;;8.10;63.40;;;;;;4997234;28;20462;-84
2021/12/03 01:15:36;;;;;;;7.57;5.13;;;8.10;63.40;;;;;;5001280;28;20061;-84
2021/12/03 01:18:05;;;;;;;6.95;4.97;;;8.10;63.50;;;;;;4999602;28;20466;-83
2021/12/03 01:20:31;;;;;;;6.93;5.10;;;8.10;63.50;;;;;;5010728;28;20082;-84
2021/12/03 01:22:58;;;;;;;6.22;4.85;;;8.10;63.50;;;;;;5001442;28;20029;-83
2021/12/03 01:25:25;;;;;;;7.45;5.35;;;8.10;63.40;;;;;;5017667;28;20527;-83
2021/12/03 01:27:52;;;;;;;8.35;5.35;;;8.20;63.50;;;;;;5027970;28;20071;-83
2021/12/03 01:30:22;;;;;;;6.55;5.00;;;8.10;63.50;;;;;;5001085;28;20033;-84
2021/12/03 01:32:49;;;;;;;6.78;5.25;;;8.20;63.50;;;;;;5017816;28;20025;-85
2021/12/03 01:35:16;;;;;;;7.20;5.25;;;8.20;63.50;;;;;;5001048;28;20080;-85
2021/12/03 01:37:43;;;;;;;7.72;5.45;;;8.20;63.50;;;;;;4995772;28;20431;-84
2021/12/03 01:40:14;;;;;;;7.28;5.00;;;8.10;63.50;;;;;;4996567;28;20025;-85
2021/12/03 01:42:42;;;;;;;7.85;5.15;;;8.20;63.80;;;;;;5016280;28;20528;-90
2021/12/03 01:45:08;;;;;;;6.75;5.43;;;8.20;64.20;;;;;;5027936;28;20029;-86
2021/12/03 01:47:35;;;;;;;5.82;4.30;;;8.20;63.60;;;;;;5015131;28;20212;-85
2021/12/03 01:50:01;;;;;;;7.43;5.28;;;8.20;63.50;;;;;;5015808;28;20045;-85
2021/12/03 01:52:27;;;;;;;7.95;5.30;;;8.20;63.60;;;;;;5028428;28;20063;-85
2021/12/03 01:54:53;;;;;;;7.25;5.10;;;8.20;63.60;;;;;;5018506;28;20025;-84
2021/12/03 01:57:20;;;;;;;7.25;5.18;;;8.20;63.60;;;;;;5016293;28;20508;-84
2021/12/03 01:59:46;;;;;;;8.52;5.30;;;8.20;63.60;;;;;;5017016;28;20128;-84
2021/12/03 02:02:13;;;;;;;7.95;5.45;;;8.20;63.60;;;;;;5006087;28;20573;-84
2021/12/03 02:04:38;;;;;;;6.18;5.05;;;8.20;63.60;;;;;;5029242;28;20041;-87
2021/12/03 02:07:07;;;;;;;7.38;5.15;;;8.20;63.70;;;;;;5018415;28;20136;-89
2021/12/03 02:09:33;;;;;;;8.13;5.38;;;8.20;63.60;;;;;;5021536;28;20057;-89
2021/12/03 02:11:59;;;;;;;7.32;5.22;;;8.20;63.70;;;;;;5009067;28;20052;-84
2021/12/03 02:14:25;;;;;;;7.13;5.25;;;8.20;63.70;;;;;;5028318;28;20033;-84
2021/12/03 02:16:51;;;;;;;7.68;5.25;;;8.20;63.60;;;;;;5017123;28;20037;-84
2021/12/03 02:19:17;;;;;;;6.97;5.20;;;8.20;63.60;;;;;;5016022;28;20416;-86
2021/12/03 02:21:45;;;;;;;8.32;5.13;;;8.30;63.60;;;;;;5017283;28;20037;-85
2021/12/03 02:24:10;;;;;;;6.85;5.18;;;8.20;63.60;;;;;;5014529;28;20128;-83
2021/12/03 02:26:37;;;;;;;6.78;5.00;;;8.30;63.70;;;;;;5001328;28;20124;-85
2021/12/03 02:29:03;;;;;;;8.73;5.95;;;8.30;63.60;;;;;;5015706;28;20034;-84
2021/12/03 02:31:29;;;;;;;7.65;5.68;;;8.30;63.60;;;;;;5018778;28;20052;-90
2021/12/03 02:33:55;;;;;;;6.85;5.30;;;8.30;63.70;;;;;;5033442;28;20037;-85
2021/12/03 02:36:21;;;;;;;7.38;5.10;;;8.30;63.70;;;;;;5026921;28;20029;-92
2021/12/03 02:38:50;;;;;;;6.57;5.13;;;8.30;63.60;;;;;;5029362;28;20036;-89
2021/12/03 02:41:16;;;;;;;7.22;5.70;;;8.30;63.60;;;;;;5021764;28;20056;-88
2021/12/03 02:43:42;;;;;;;7.90;5.72;;;8.30;63.60;;;;;;5026761;28;20120;-88
2021/12/03 02:46:08;;;;;;;7.35;5.30;;;8.30;63.60;;;;;;5017775;28;20064;-88
2021/12/03 02:48:35;;;;;;;7.20;5.68;;;8.30;64.20;;;;;;5014196;28;20049;-88
2021/12/03 02:51:03;;;;;;;6.53;5.03;;;8.30;63.70;;;;;;5016085;28;20511;-89
2021/12/03 02:53:29;;;;;;;6.35;5.43;;;8.40;63.70;;;;;;5000362;28;20059;-88
2021/12/03 02:55:55;;;;;;;9.25;5.80;;;8.40;63.70;;;;;;5016207;28;20466;-88
2021/12/03 02:58:21;;;;;;;7.03;5.30;;;8.40;63.70;;;;;;4996406;28;20030;-85
2021/12/03 03:00:48;;;;;;;8.13;5.38;;;8.30;63.60;;;;;;5028194;28;20044;-89
2021/12/03 03:03:14;;;;;;;7.03;5.47;;;8.40;63.60;;;;;;5027209;28;20037;-89
2021/12/03 03:05:40;;;;;;;7.88;5.95;;;8.30;63.60;;;;;;4999448;28;20029;-88
2021/12/03 03:08:07;;;;;;;7.47;4.95;;;8.40;63.70;;;;;;5004828;28;20163;-88
2021/12/03 03:10:39;;;;;;;9.52;5.70;;;8.40;63.70;;;;;;5013048;28;20029;-89
2021/12/03 03:13:05;;;;;;;8.07;5.60;;;8.40;63.70;;;;;;4999852;28;20084;-89
2021/12/03 03:15:32;;;;;;;6.68;5.57;;;8.40;63.70;;;;;;5013689;28;20459;-91
2021/12/03 03:18:15;;;;;;;7.38;5.55;;;8.40;63.70;;;;;;5005837;28;20128;-90
2021/12/03 03:20:42;;;;;;;7.65;5.57;;;8.40;63.70;;;;;;5014538;28;20030;-92
2021/12/03 03:23:09;;;;;;;7.88;5.75;;;8.40;63.70;;;;;;5016166;28;20060;-90
2021/12/03 03:25:36;;;;;;;7.35;5.50;;;8.40;63.70;;;;;;5000761;28;20044;-91
2021/12/03 03:28:02;;;;;;;7.90;5.60;;;8.40;63.70;;;;;;5017545;28;20026;-90
2021/12/03 03:30:28;;;;;;;7.40;5.85;;;8.40;63.70;;;;;;5015265;28;20034;-89
2021/12/03 03:32:55;;;;;;;8.20;5.80;;;8.40;63.70;;;;;;5040398;28;20063;-90
2021/12/03 03:35:21;;;;;;;6.70;5.50;;;8.40;63.70;;;;;;5025846;28;20124;-92
2021/12/03 03:37:47;;;;;;;6.85;5.50;;;8.40;63.70;;;;;;5007704;28;20109;-92
2021/12/03 03:40:13;;;;;;;8.82;6.13;;;8.40;63.70;;;;;;5005220;28;20124;-94
2021/12/03 03:42:39;;;;;;;8.05;5.50;;;8.40;63.70;;;;;;5021046;28;20060;-92
2021/12/03 03:45:09;;;;;;;8.48;5.65;;;8.50;63.70;;;;;;5020823;28;20048;-94
2021/12/03 03:47:36;;;;;;;7.75;5.65;;;8.50;63.70;;;;;;4992830;28;20033;-84
2021/12/03 03:50:04;;;;;;;8.95;5.63;;;8.50;63.70;;;;;;5002794;28;20061;-84
2021/12/03 03:52:30;;;;;;;8.48;5.50;;;8.40;63.60;;;;;;5019648;28;20032;-83
2021/12/03 03:54:56;;;;;;;11.15;6.35;;;8.50;63.70;;;;;;5019367;28;20412;-85
2021/12/03 03:57:23;;;;;;;8.65;5.93;;;8.50;63.70;;;;;;5017499;28;20037;-86
2021/12/03 03:59:49;;;;;;;7.53;5.80;;;8.50;63.70;;;;;;5014307;28;20452;-84
2021/12/03 04:02:15;;;;;;;9.07;6.55;;;8.50;63.80;;;;;;5003012;28;20429;-85
2021/12/03 04:04:41;;;;;;;10.45;6.20;;;8.50;63.80;;;;;;5015426;28;20056;-81
2021/12/03 04:07:07;;;;;;;10.60;6.45;;;8.50;63.80;;;;;;5029900;28;20037;-83
2021/12/03 04:09:33;;;;;;;8.43;5.72;;;8.50;63.90;;;;;;5018881;28;20033;-82
2021/12/03 04:11:59;;;;;;;9.40;6.10;;;8.50;63.80;;;;;;5029445;28;20106;-81
2021/12/03 04:14:25;;;;;;;9.52;6.30;;;8.50;63.80;;;;;;5019281;28;20021;-81
2021/12/03 04:16:51;;;;;;;11.90;6.35;;;8.50;63.90;;;;;;5018767;28;20137;-82
2021/12/03 04:19:18;;;;;;;10.07;6.38;;;8.50;63.90;;;;;;5017982;28;20044;-82
2021/12/03 04:21:45;;;;;;;7.72;5.47;;;8.50;64.50;;;;;;5017280;28;20116;-82
2021/12/03 04:24:11;;;;;;;9.02;6.00;;;8.50;63.90;;;;;;5029339;28;20397;-82
2021/12/03 04:26:36;;;;;;;8.30;6.00;;;8.60;63.90;;;;;;5023414;28;20099;-82
2021/12/03 04:29:03;;;;;;;8.60;5.90;;;8.50;63.80;;;;;;5028982;28;20037;-80
2021/12/03 04:31:29;;;;;;;9.00;6.32;;;8.50;63.80;;;;;;5018519;28;20424;-81
2021/12/03 04:33:55;;;;;;;9.73;6.38;;;8.50;63.80;;;;;;5014930;28;20029;-82
2021/12/03 04:36:21;;;;;;;10.07;6.30;;;8.60;63.90;;;;;;5028863;28;20039;-81
2021/12/03 04:38:47;;;;;;;9.98;6.78;;;8.60;63.90;;;;;;5016814;28;20033;-81
2021/12/03 04:41:14;;;;;;;8.35;6.60;;;8.50;63.70;;;;;;5022317;28;20041;-83
2021/12/03 04:43:40;;;;;;;8.45;6.32;;;8.60;63.90;;;;;;5027336;28;20034;-82
2021/12/03 04:46:06;;;;;;;9.60;6.70;;;8.60;63.80;;;;;;5010805;28;20045;-83
2021/12/03 04:48:33;;;;;;;9.07;6.70;;;8.60;63.80;;;;;;5016919;28;20504;-83
2021/12/03 04:50:59;;;;;;;8.70;5.75;;;8.60;63.90;;;;;;5000910;28;20047;-84
2021/12/03 04:53:25;;;;;;;8.90;5.50;;;8.60;63.80;;;;;;5018728;28;20022;-84
2021/12/03 04:55:51;;;;;;;7.28;5.88;;;8.60;63.80;;;;;;5001488;28;20033;-84
2021/12/03 04:58:18;;;;;;;9.30;6.15;;;8.60;63.70;;;;;;5005871;28;20425;-84
2021/12/03 05:00:51;;;;;;;8.77;6.40;;;8.60;63.60;;;;;;5028430;28;20026;-84
2021/12/03 05:03:18;;;;;;;8.77;6.07;;;8.60;63.60;;;;;;5017743;28;20037;-84
2021/12/03 05:05:51;;;;;;;9.25;5.93;;;8.60;63.60;;;;;;5028139;28;20030;-84
2021/12/03 05:08:17;;;;;;;11.90;6.57;;;8.60;63.60;;;;;;5018375;28;20061;-84
2021/12/03 05:10:44;;;;;;;10.48;6.65;;;8.60;63.60;;;;;;5000173;28;20088;-84
2021/12/03 05:13:18;;;;;;;8.60;6.47;;;8.60;63.60;;;;;;4999946;28;20037;-84
2021/12/03 05:15:46;;;;;;;9.85;6.30;;;8.60;63.60;;;;;;5017588;28;20037;-84
2021/12/03 05:18:14;;;;;;;7.47;6.20;;;8.60;63.60;;;;;;5017861;28;20029;-84
2021/12/03 05:20:41;;;;;;;10.20;6.65;;;8.60;63.70;;;;;;5016567;28;20424;-84
2021/12/03 05:23:08;;;;;;;7.53;6.15;;;8.60;63.70;;;;;;5005427;28;20030;-83
2021/12/03 05:25:35;;;;;;;9.63;6.28;;;8.70;63.70;;;;;;5006055;28;20033;-83
2021/12/03 05:28:02;;;;;;;9.60;6.45;;;8.70;63.70;;;;;;5016298;28;20511;-84
2021/12/03 05:30:29;;;;;;;9.63;6.50;;;8.70;63.70;;;;;;5001980;28;20087;-82
2021/12/03 05:32:55;;;;;;;11.15;6.70;;;8.70;63.70;;;;;;5017034;28;20034;-83
2021/12/03 05:35:22;;;;;;;9.50;6.47;;;8.70;63.70;;;;;;5011583;28;20164;-82
2021/12/03 05:37:48;;;;;;;10.18;7.00;;;8.70;63.70;;;;;;5026839;28;20066;-82
2021/12/03 05:40:16;;;;;;;9.18;6.75;;;8.70;63.70;;;;;;5017196;28;20041;-83
2021/12/03 05:42:44;;;;;;;8.15;6.72;;;8.70;63.80;;;;;;5027779;28;20033;-81
2021/12/03 05:45:13;;;;;;;9.05;6.57;;;8.70;63.80;;;;;;5014833;28;20029;-82
2021/12/03 05:47:39;;;;;;;8.63;6.25;;;8.70;63.90;;;;;;5016410;28;20049;-82
2021/12/03 05:50:07;;;;;;;11.32;7.40;;;8.70;63.90;;;;;;5027033;28;20094;-82
2021/12/03 05:52:33;;;;;;;8.98;6.68;;;8.70;63.80;;;;;;5016352;28;20052;-82
2021/12/03 05:54:59;;;;;;;10.27;7.00;;;8.70;63.90;;;;;;5026799;28;20516;-81
2021/12/03 05:57:25;;;;;;;8.73;6.57;;;8.70;63.90;;;;;;5027317;28;20029;-81
2021/12/03 05:59:51;;;;;;;11.27;6.65;;;8.70;63.90;;;;;;5016570;28;20064;-82
2021/12/03 06:02:17;;;;;;;10.80;7.47;;;8.70;63.90;;;;;;5001266;28;20032;-81
2021/12/03 06:04:43;;;;;;;9.02;6.82;;;8.70;63.90;;;;;;5005952;28;20507;-82
2021/12/03 06:07:09;;;;;;;10.05;6.47;;;8.80;64.00;;;;;;5025958;28;20104;-81
2021/12/03 06:09:35;;;;;;;8.57;6.28;;;8.70;63.80;;;;;;5026982;28;20045;-81
2021/12/03 06:12:02;;;;;;;9.85;6.35;;;8.70;63.80;;;;;;5026256;28;20052;-80
2021/12/03 06:14:29;;;;;;;8.73;6.60;;;8.80;63.80;;;;;;5014868;28;20026;-82
2021/12/03 06:16:56;;;;;;;8.25;6.30;;;8.70;63.70;;;;;;5027012;28;20037;-82
2021/12/03 06:19:22;;;;;;;9.45;7.05;;;8.80;63.70;;;;;;5026207;28;20082;-82
2021/12/03 06:21:49;;;;;;;9.75;6.10;;;8.80;63.70;;;;;;5015923;28;20029;-81
2021/12/03 06:24:15;;;;;;;8.57;6.30;;;8.80;63.70;;;;;;5026865;28;20037;-81
2021/12/03 06:26:40;;;;;;;9.18;6.57;;;8.80;63.70;;;;;;5019949;28;20515;-81
2021/12/03 06:29:06;;;;;;;9.85;6.53;;;8.80;63.70;;;;;;5017974;28;20069;-82
2021/12/03 06:31:33;;;;;;;12.43;8.32;;;8.80;63.70;;;;;;5026292;28;20045;-81
2021/12/03 06:34:00;;;;;;;10.57;7.90;;;8.90;63.80;;;;;;5026297;28;20057;-82
2021/12/03 06:36:26;;;;;;;11.88;7.72;;;8.80;63.70;;;;;;5026958;28;20048;-81
2021/12/03 06:38:52;;;;;;;11.65;7.13;;;8.90;63.80;;;;;;5015720;28;20029;-81
2021/12/03 06:41:18;;;;;;;9.70;7.05;;;8.90;63.80;;;;;;5016567;28;20064;-83
2021/12/03 06:43:44;;;;;;;11.45;7.45;;;8.90;63.90;;;;;;5016411;28;20045;-81
2021/12/03 06:46:10;;;;;;;10.18;6.85;;;8.90;63.80;;;;;;5026371;28;20496;-82
2021/12/03 06:48:36;;;;;;;9.02;6.47;;;8.90;63.80;;;;;;5025870;28;20049;-84
2021/12/03 06:51:02;;;;;;;9.30;6.60;;;8.90;63.80;;;;;;5020756;28;20104;-82
2021/12/03 06:53:40;;;;;;;8.50;6.68;;;8.90;63.80;;;;;;5004389;28;20412;-87
2021/12/03 06:56:09;;;;;;;10.15;6.72;;;8.90;63.90;;;;;;5000630;28;20033;-86
2021/12/03 06:58:35;;;;;;;9.50;6.78;;;8.90;63.80;;;;;;5021024;28;20516;-83
2021/12/03 07:01:03;;;;;;;8.70;6.28;;;8.90;63.80;;;;;;5026645;28;20033;-83
2021/12/03 07:03:29;;;;;;;10.25;6.13;;;8.90;63.80;;;;;;5015826;28;20128;-82
2021/12/03 07:05:54;;;;;;;7.57;5.25;;;9.00;64.10;;;;;;5028524;28;20172;-83
2021/12/03 07:08:20;;;;;;;6.55;4.75;;;9.00;64.70;;;;;;4995425;28;20030;-81
2021/12/03 07:10:46;;;;;;;12.55;4.93;;;9.00;65.20;;;;;;5019058;28;20033;-83
2021/12/03 07:13:12;;;;;;;8.48;6.03;;;9.10;65.70;;;;;;5030323;28;20029;-81
2021/12/03 07:15:38;;;;;;;9.93;6.65;;;9.10;66.80;;;;;;5016270;28;20039;-80
2021/12/03 07:18:04;;;;;;;12.07;7.43;;;9.10;67.70;;;;;;5030109;28;20033;-79
2021/12/03 07:20:30;;;;;;;9.02;7.25;;;9.10;67.80;;;;;;5029808;28;20029;-79
2021/12/03 07:22:57;;;;;;;10.88;7.68;;;9.10;67.40;;;;;;5029133;28;20471;-79
2021/12/03 07:25:23;;;;;;;16.50;8.75;;;9.10;67.10;;;;;;5029732;28;20404;-78
2021/12/03 07:27:49;;;;;;;10.80;7.07;;;9.10;66.90;;;;;;5029478;28;20077;-78
2021/12/03 07:30:48;;;;;;;11.88;8.32;;;9.10;66.60;;;;;;5029565;28;20037;-79
2021/12/03 07:34:11;;;;;;;10.20;7.05;;;9.20;66.60;;;;;;4967807;28;20101;-80
2021/12/03 07:36:40;;;;;;;13.88;8.52;;;9.10;66.40;;;;;;4990010;28;20030;-80
2021/12/03 07:39:09;;;;;;;11.10;8.35;;;9.10;66.30;;;;;;4989519;28;20058;-81
2021/12/03 07:41:41;;;;;;;10.35;7.50;;;9.10;66.20;;;;;;4989103;28;20709;-81
2021/12/03 07:44:11;;;;;;;11.55;8.32;;;9.10;66.20;;;;;;4985586;28;20089;-80
2021/12/03 07:46:42;;;;;;;13.65;8.55;;;9.10;66.40;;;;;;4987995;28;20124;-79
2021/12/03 07:53:23;;;;;;;10.02;7.78;;;9.10;66.50;;;;;;4986095;28;20586;-78
2021/12/03 07:55:53;;;;;;;11.93;7.93;;;9.10;66.20;;;;;;4949907;28;20121;-79
2021/12/03 07:58:25;;;;;;;12.00;8.20;;;9.10;66.30;;;;;;4988742;28;20446;-80
2021/12/03 08:00:54;;;;;;;13.55;8.82;;;9.10;66.30;;;;;;4990038;28;20110;-82
2021/12/03 08:03:26;;;;;;;13.32;8.70;;;9.10;66.40;;;;;;4988744;28;20030;-78
2021/12/03 08:05:52;;;;;;;12.18;8.45;;;9.10;66.40;;;;;;4989277;28;20038;-79
2021/12/03 08:08:26;;;;;;;13.98;8.48;;;9.00;66.30;;;;;;4989908;28;20022;-79
2021/12/03 08:10:55;;;;;;;11.98;7.82;;;9.00;66.50;;;;;;4986102;28;20045;-81
2021/12/03 08:13:21;;;;;;;13.45;8.25;;;9.00;66.40;;;;;;4989857;28;20505;-80
2021/12/03 08:15:47;;;;;;;15.73;9.25;;;9.10;66.30;;;;;;4987105;28;20034;-80
2021/12/03 08:18:13;;;;;;;12.32;8.65;;;9.10;66.40;;;;;;4986766;28;20133;-80
2021/12/03 08:20:39;;;;;;;12.07;8.23;;;9.00;66.40;;;;;;4990051;28;20120;-79
2021/12/03 08:23:05;;;;;;;11.20;8.15;;;9.10;66.40;;;;;;4989955;28;20132;-79
2021/12/03 08:25:31;;;;;;;16.70;8.75;;;9.10;66.50;;;;;;4989682;28;20038;-80
2021/12/03 08:27:57;;;;;;;12.43;8.68;;;9.10;66.50;;;;;;4989632;28;20153;-79
2021/12/03 08:30:27;;;;;;;16.08;8.63;;;9.00;66.50;;;;;;4991207;28;20145;-79
2021/12/03 08:32:53;;;;;;;14.52;8.77;;;9.10;67.10;;;;;;5007002;28;20400;-80
2021/12/03 08:35:19;;;;;;;10.55;8.43;;;9.10;66.30;;;;;;5028154;28;20051;-79
2021/12/03 08:37:47;;;;;;;14.23;8.63;;;9.10;66.40;;;;;;5029204;28;20037;-78
2021/12/03 08:40:13;;;;;;;20.05;11.85;;;9.10;66.40;;;;;;5029611;28;20466;-79
2021/12/03 08:42:39;;;;;;;17.52;10.35;;;9.10;66.40;;;;;;5028616;28;20029;-78
2021/12/03 08:45:17;;;;;;;16.67;10.57;;;9.20;66.40;;;;;;5028098;28;20029;-83
2021/12/03 08:47:50;;;;;;;14.38;9.85;;;9.20;66.30;;;;;;5022118;28;20531;-85
2021/12/03 08:57:48;;;;;;;14.02;8.85;;;9.20;66.10;;;;;;5009616;28;20044;-90
2021/12/03 09:00:21;;;;;;;12.23;8.85;;;9.10;65.60;;;;;;5022852;28;20523;-93
2021/12/03 09:03:39;;;;;;;12.38;8.23;;;9.10;65.40;;;;;;5008887;28;20029;-90
2021/12/03 09:06:08;;;;;;;13.77;8.93;;;9.10;65.00;;;;;;5017999;28;20033;-92
2021/12/03 09:08:40;;;;;;;14.98;8.57;;;9.10;65.00;;;;;;4991860;28;20034;-91
2021/12/03 09:11:12;;;;;;;13.13;8.25;;;9.10;65.00;;;;;;5002546;28;20033;-90
2021/12/03 09:13:40;;;;;;;12.57;8.20;;;9.10;64.90;;;;;;5001709;28;20484;-91
2021/12/03 09:16:12;;;;;;;13.50;9.27;;;9.10;64.70;;;;;;5012639;28;20041;-87
2021/12/03 09:18:41;;;;;;;13.73;8.75;;;9.10;64.80;;;;;;5028178;28;20037;-82
2021/12/03 09:21:10;;;;;;;13.35;9.02;;;9.10;64.70;;;;;;5028473;28;20077;-82
2021/12/03 09:26:16;;;;;;;11.60;8.38;;;9.10;64.50;;;;;;5027534;28;20084;-83
2021/12/03 09:28:57;;;;;;;12.20;8.35;;;9.10;64.40;;;;;;4999314;28;20033;-84
2021/12/03 09:31:23;;;;;;;12.93;9.13;;;9.00;64.30;;;;;;5007247;28;20140;-83
2021/12/03 09:33:50;;;;;;;11.38;7.85;;;9.00;64.20;;;;;;5028000;28;20523;-81
2021/12/03 09:36:16;;;;;;;12.38;8.30;;;9.00;64.20;;;;;;5018607;28;20038;-78
2021/12/03 09:38:42;;;;;;;10.88;7.78;;;9.00;64.10;;;;;;5027158;28;20044;-76
2021/12/03 09:41:13;;;;;;;13.90;8.32;;;9.00;64.30;;;;;;5028537;28;20037;-77
2021/12/03 09:43:51;;;;;;;9.30;6.80;;;9.10;65.10;;;;;;5026872;28;20033;-76
2021/12/03 09:46:22;;;;;;;12.38;7.57;;;9.10;65.80;;;;;;4991903;28;20399;-78
2021/12/03 09:51:21;;;;;;;12.07;6.88;;;9.10;66.70;;;;;;5026850;28;20419;-78
2021/12/03 09:56:13;;;;;;;10.52;7.18;;;9.20;67.10;;;;;;5027209;28;20040;-77
2021/12/03 10:15:57;;;;;;;8.68;6.78;;;9.30;67.60;;;;;;5026047;28;20044;-77
2021/12/03 10:18:21;;;;;;;12.68;7.03;;;9.40;66.90;;;;;;5012974;28;20037;-76
2021/12/03 10:21:02;;;;;;;;;;;9.40;66.80;;;;;;5027126;28;20044;-76
2021/12/03 10:38:29;;;;;;;9.45;7.13;;;9.50;66.50;;;;;;4935080;29;20511;-77
2021/12/03 10:46:12;;;;;;;9.75;7.07;;;9.50;66.30;;;;;;5025780;28;20061;-77
2021/12/03 10:51:39;;;;;;;8.82;6.47;;;9.50;66.20;;;;;;5025814;28;20104;-78
2021/12/03 11:05:16;;;;;;;11.30;6.70;;;9.50;66.10;;;;;;5026071;28;20105;-77
2021/12/03 11:08:04;;;;;;;9.32;6.82;;;9.60;66.20;;;;;;5026254;28;20099;-77
2021/12/03 11:14:11;;;;;;;9.13;6.68;;;9.60;66.00;;;;;;5025918;28;20279;-76
2021/12/03 11:45:55;;;;;;;9.70;6.55;;;9.70;65.60;;;;;;5015113;28;20029;-76
2021/12/03 11:49:33;;;;;;;9.75;6.38;;;9.70;65.40;;;;;;5002477;28;20053;-76
2021/12/03 12:19:27;;;;;;;12.82;8.18;;;9.70;65.60;;;;;;5028632;28;20044;-78
2021/12/03 12:36:55;;;;;;;12.60;7.55;;;9.60;65.20;;;;;;4976917;28;20065;-77
2021/12/03 13:20:04;;;;;;;13.90;7.70;;;9.40;64.90;;;;;;5025216;28;20033;-83
2021/12/03 13:32:09;;;;;;;11.02;7.85;;;9.40;64.30;;;;;;5027947;28;20500;-83
2021/12/03 14:44:53;;;;;;;13.18;8.18;;;9.50;64.70;;;;;;5005773;28;20033;-79
2021/12/03 14:56:11;;;;;;;10.90;7.25;;;9.60;64.50;;;;;;5009404;28;20034;-77
2021/12/03 15:09:11;;;;;;;12.48;7.28;;;9.60;64.70;;;;;;5008340;28;20030;-81
2021/12/03 15:19:43;;;;;;;9.95;7.03;;;9.70;65.40;;;;;;5006912;28;20451;-78
2021/12/03 15:25:05;;;;;;;10.65;7.10;;;9.70;65.50;;;;;;5005009;28;20045;-77
2021/12/03 15:33:23;;;;;;;11.60;7.60;;;9.80;65.60;;;;;;4998722;28;20037;-79
2021/12/03 15:35:56;;;;;;;10.48;7.25;;;9.80;65.70;;;;;;4998191;28;20040;-79
2021/12/03 15:52:36;;;;;;;10.30;7.47;;;9.80;66.00;;;;;;4988961;28;20034;-78
2021/12/03 16:08:14;;;;;;;13.93;9.05;;;9.80;66.30;;;;;;4985939;28;20048;-79
2021/12/03 16:14:02;;;;;;;13.68;9.63;;;9.90;66.30;;;;;;4971572;28;20051;-88
2021/12/03 16:19:17;;;;;;;14.38;9.82;;;9.90;66.40;;;;;;4988958;28;20038;-81
2021/12/03 16:44:06;;;;;;;13.73;10.05;;;10.00;66.80;;;;;;4938554;29;20031;-85
2021/12/03 16:49:50;;;;;;;14.35;10.18;;;10.00;66.80;;;;;;5002393;28;20113;-81
2021/12/03 16:52:04;;;;;;;14.23;10.15;;;10.00;66.90;;;;;;5014685;28;20420;-79
2021/12/03 16:54:41;;;;;;;14.45;9.70;;;10.00;66.80;;;;;;5014278;28;20124;-81
2021/12/03 16:57:09;;;;;;;12.98;9.85;;;10.00;66.70;;;;;;5004303;28;20052;-85
2021/12/03 16:59:41;;;;;;;14.90;9.20;;;10.00;66.60;;;;;;5003658;28;20038;-85
2021/12/03 17:02:20;;;;;;;13.15;9.73;;;10.00;66.60;;;;;;5011936;28;20057;-89
2021/12/03 17:23:50;;;;;;;12.45;9.02;;;10.00;66.90;;;;;;5016429;28;20451;-85
2021/12/03 17:51:55;;;;;;;13.27;9.10;;;10.10;67.20;;;;;;4930956;29;20090;-87
2021/12/03 17:56:43;;;;;;;16.25;9.35;;;10.10;67.10;;;;;;5015191;28;20033;-91
2021/12/03 18:56:46;;;;;;;10.02;8.02;;;10.20;67.20;;;;;;5024827;28;20041;-87
2021/12/03 18:59:13;;;;;;;8.85;7.45;;;10.20;67.10;;;;;;5000895;28;20030;-88
2021/12/03 19:01:39;;;;;;;14.25;7.85;;;10.20;67.20;;;;;;5014875;28;20037;-90
2021/12/03 19:09:21;;;;;;;9.85;7.00;;;10.20;67.00;;;;;;5011322;28;20464;-84
2021/12/03 19:12:06;;;;;;;8.55;6.40;;;10.20;67.00;;;;;;5022877;28;20069;-81
2021/12/03 19:14:36;;;;;;;9.10;5.88;;;10.30;67.00;;;;;;5025646;28;20033;-91
2021/12/03 19:17:03;;;;;;;8.60;4.78;;;10.30;67.30;;;;;;5018028;28;20056;-84
2021/12/03 19:19:30;;;;;;;10.02;5.60;;;10.30;67.70;;;;;;5026474;28;20040;-86
2021/12/03 19:21:59;;;;;;;6.28;4.75;;;10.30;68.10;;;;;;5026711;28;20033;-87
2021/12/03 19:24:27;;;;;;;6.40;4.68;;;10.30;68.30;;;;;;5025602;28;20040;-83
2021/12/03 19:26:53;;;;;;;6.20;4.35;;;10.30;68.50;;;;;;5026359;28;20029;-81
2021/12/03 19:29:20;;;;;;;6.47;4.55;;;10.40;68.70;;;;;;4990725;28;20381;-82
2021/12/03 19:31:50;;;;;;;7.47;4.65;;;10.40;68.90;;;;;;5026216;28;20061;-84
2021/12/03 19:34:16;;;;;;;6.10;3.80;;;10.40;69.10;;;;;;5016223;28;20045;-82
2021/12/03 19:36:46;;;;;;;8.52;4.35;;;10.40;69.20;;;;;;5026292;28;20135;-82
2021/12/03 19:39:15;;;;;;;8.80;4.68;;;10.40;69.40;;;;;;4999082;28;20033;-80
2021/12/03 19:42:02;;;;;;;7.30;4.38;;;10.40;69.40;;;;;;5017327;28;20372;-81
2021/12/03 19:47:29;;;;;;;6.20;4.25;;;10.50;69.50;;;;;;5018000;28;21535;-85
2021/12/03 19:52:59;;;;;;;8.70;4.00;;;10.60;69.70;;;;;;5006557;28;20445;-83
2021/12/03 19:55:28;;;;;;;7.18;3.78;;;10.60;69.90;;;;;;4988880;28;20048;-82
2021/12/03 19:57:54;;;;;;;5.43;3.33;;;10.50;70.20;;;;;;5007532;28;20978;-82
2021/12/03 20:00:24;;;;;;;3.95;3.50;;;10.60;70.40;;;;;;4995483;28;20033;-82
2021/12/03 20:02:51;;;;;;;8.07;3.55;;;10.60;70.60;;;;;;4989232;28;20112;-82
2021/12/03 20:05:16;;;;;;;7.60;3.63;;;10.60;70.70;;;;;;5025319;28;20716;-83
2021/12/03 20:07:44;;;;;;;5.57;3.42;;;10.60;70.70;;;;;;5025936;28;20037;-83
2021/12/03 20:10:12;;;;;;;4.68;2.97;;;10.70;70.80;;;;;;5026244;28;20124;-82
2021/12/03 20:12:38;;;;;;;4.50;3.40;;;10.70;70.90;;;;;;5016659;28;20025;-80
2021/12/03 20:15:08;;;;;;;3.65;3.08;;;10.70;70.90;;;;;;5018081;28;20120;-82
2021/12/03 20:17:50;;;;;;;6.97;3.00;;;10.70;70.90;;;;;;5029533;28;20037;-82
2021/12/03 20:20:17;;;;;;;7.63;2.90;;;10.70;70.90;;;;;;5017945;28;20045;-82
2021/12/03 20:28:04;;;;;;;4.63;3.03;;;10.70;70.80;;;;;;5029408;28;20037;-88
2021/12/03 20:34:01;;;;;;;7.57;3.20;;;10.80;70.90;;;;;;5018862;28;20771;-89
2021/12/03 20:36:06;;;;;;;9.98;3.55;;;10.80;70.80;;;;;;5014032;28;20732;-86
2021/12/03 20:38:33;;;;;;;4.15;3.30;;;10.80;70.80;;;;;;5018453;28;20179;-87
2021/12/03 20:41:07;;;;;;;7.15;2.78;;;10.80;70.80;;;;;;5011756;28;20043;-86
2021/12/03 20:43:49;;;;;;;4.38;2.83;;;10.80;70.90;;;;;;5006963;28;20029;-87
2021/12/03 20:46:39;;;;;;;8.18;3.05;;;10.80;70.90;;;;;;5029069;28;20084;-85
2021/12/03 20:49:54;;;;;;;6.70;2.90;;;10.90;70.90;;;;;;5020431;28;20025;-89
2021/12/03 20:54:41;;;;;;;4.28;2.92;;;10.90;70.80;;;;;;5030922;28;20029;-92
2021/12/03 21:08:28;;;;;;;4.03;2.80;;;10.90;70.70;;;;;;5048638;28;20044;-90
2021/12/03 21:10:58;;;;;;;4.15;2.63;;;10.90;70.60;;;;;;5041191;28;20037;-85
2021/12/03 21:13:32;;;;;;;5.95;3.10;;;10.90;70.50;;;;;;5047420;28;20519;-91
2021/12/03 21:22:16;;;;;;;5.43;3.05;;;11.00;70.50;;;;;;5037642;28;20388;-93
2021/12/03 21:24:15;;;;;;;4.80;2.63;;;11.00;70.70;;;;;;5007637;28;20064;-87
2021/12/03 21:26:43;;;;;;;3.50;2.88;;;11.00;70.80;;;;;;5004177;28;20057;-93